Cleveland, OH

7:46 PM EDT on August 03, 2015 (GMT -0400)
APRSWXNET | | Change Station
CLOSE
Current Station
Personal Weather Station
Location: Cleveland, OH
Elevation: 690 ft
Nearby Weather Stations

Elev 690 ft 41.47 °N, 81.65 °W | Updated 28 minutes ago

Clear
Clear
79 °F
Feels Like 81 °F
N
0
Wind Variable Wind from WNW
Gusts 0.0 mph

Today
High -- | Low -- °F
--% Chance of Precip.
Yesterday
High -- | Low -- °F
Precip. -- in
6:23 AM 8:41 PM
Waning Gibbous, 83% visible
Pressure 29.76 in
Visibility 10.0 miles
Clouds Clear
Heat Index 81 °F
Dew Point 63 °F
Humidity 59%
Rainfall in
Snow Depth Not available.
UV 1 out of 12
Pollen 3.90 out of 12
Air Quality Not available.
Flu Activity Not available.
METAR KBKL 032253Z 25003KT 10SM CLR 26/18 A2977 RMK AO2 SLP078 T02560178

More Conditions Fewer Conditions

Pressure 29.76 in
Visibility 10.0 miles
Clouds Clear
Heat Index 81 °F
Dew Point 63 °F
Humidity 59%
Rainfall in
Snow Depth Not available.
UV 1 out of 12
Pollen 3.90 out of 12
Air Quality Not available.
Flu Activity Not available.
METAR KBKL 032253Z 25003KT 10SM CLR 26/18 A2977 RMK AO2 SLP078 T02560178

More Conditions Fewer Conditions

Nowcast | as of 7:18 PM EDT on August 3, 2015

At 710 PM EDT...Doppler radar indicated scattered showers and thunderstorms...along a line extending from 16 miles north of Geneva-On-The-Lake to 11 miles north of Lorain to near CLyde moving southeast at 30 mph. Scattered showers and isolated thunderstorms through 9pm will be moving through the central and east Lakeshore counties of Northern Ohio. Including locations...Cleveland...Lorain...Elyria...Sandusky...Painesville... Ashtabula...Norwalk...Willowick...Geneva-On-The-Lake...Euclid and Mentor.

×

10-Day Weather Forecast

×

Almanac

Astronomy

Aug. 03, 2015 Rise Set
Actual Time
Civil Twilight
Nautical Twilight
Astronomical Twilight
Moon
Length of Visible Light
Length of Day
Tomorrow will be .
, % of the Moon is Illuminated

Today's Extremes

State Highs State Lows

Community

WunderPhotos

Upload Photos

1,843,791 photos uploaded!

WunderBlogs® & News

Nearby

Air Quality

  Air Quality AQ Index Pollutant
Not available.

Snow Depth

Station Depth Elevation

Earthquake Activity

City Distance Mag. Time & Date
Minimum magnitude displayed is 2.5.

Coastal Water Temperatures

Place Temperature

Stations

Nearby Weather Stations

Station Location Temp. Windchill Dew Point Humidity Wind Precip. Elev Updated Type